Time;durP1;ratioP1;P1;durP2;ratioP2;P2;SDS_P1;SDS_P2;PMS_P1;PMS_P2;Temp;Humidity;BMP_temperature;BMP_pressure;BME280_temperature;BME280_humidity;BME280_pressure;Samples;Min_cycle;Max_cycle;Signal;HPM_P1;HPM_P2
2021/08/11 00:00:28;;;;;;;7.70;6.30;;;19.40;99.90;;;;;;5069752;28;20471;-60
2021/08/11 00:02:56;;;;;;;6.90;5.87;;;19.30;99.90;;;;;;5070709;28;20504;-60
2021/08/11 00:05:23;;;;;;;8.63;6.47;;;19.30;99.90;;;;;;5070945;28;20508;-60
2021/08/11 00:07:50;;;;;;;6.20;5.60;;;19.30;99.90;;;;;;5071250;28;20447;-60
2021/08/11 00:10:17;;;;;;;9.17;6.07;;;19.30;99.90;;;;;;5052798;28;20471;-60
2021/08/11 00:12:44;;;;;;;7.80;6.27;;;19.10;99.90;;;;;;5063276;28;21040;-59
2021/08/11 00:15:13;;;;;;;7.90;6.20;;;19.00;99.90;;;;;;5070967;28;20447;-60
2021/08/11 00:17:40;;;;;;;7.07;6.37;;;19.10;99.90;;;;;;5071381;28;20478;-59
2021/08/11 00:20:09;;;;;;;9.90;6.00;;;19.10;99.90;;;;;;5069971;28;20466;-60
2021/08/11 00:22:36;;;;;;;6.57;5.50;;;19.10;99.90;;;;;;5069899;28;20447;-59
2021/08/11 00:25:04;;;;;;;7.20;6.20;;;19.10;99.90;;;;;;5071058;28;21015;-60
2021/08/11 00:27:32;;;;;;;8.47;6.23;;;19.00;99.90;;;;;;5066696;28;21157;-60
2021/08/11 00:30:00;;;;;;;8.40;7.10;;;18.90;99.90;;;;;;5070270;28;20527;-59
2021/08/11 00:32:29;;;;;;;8.10;6.57;;;19.00;99.90;;;;;;5065689;28;20471;-61
2021/08/11 00:34:56;;;;;;;6.97;6.27;;;18.90;99.90;;;;;;5068238;28;20450;-59
2021/08/11 00:37:25;;;;;;;10.57;6.20;;;18.90;99.90;;;;;;5070961;28;20483;-60
2021/08/11 00:39:52;;;;;;;6.00;5.40;;;18.90;99.90;;;;;;5070770;28;20475;-60
2021/08/11 00:42:21;;;;;;;6.67;6.00;;;18.90;99.90;;;;;;5071028;28;20459;-59
2021/08/11 00:44:48;;;;;;;8.10;6.90;;;18.90;99.90;;;;;;5070725;28;20455;-60
2021/08/11 00:47:20;;;;;;;8.53;6.63;;;18.90;99.90;;;;;;5071033;28;20936;-60
2021/08/11 00:49:46;;;;;;;8.43;6.43;;;18.80;99.90;;;;;;5063145;28;20512;-60
2021/08/11 00:52:17;;;;;;;7.47;6.47;;;18.90;99.90;;;;;;5068985;28;21025;-60
2021/08/11 00:54:46;;;;;;;9.40;6.00;;;18.80;99.90;;;;;;5070810;28;20462;-60
2021/08/11 00:57:17;;;;;;;7.97;6.50;;;18.90;99.90;;;;;;5070338;28;20474;-59
2021/08/11 00:59:46;;;;;;;6.23;5.67;;;18.80;99.90;;;;;;5070598;28;20455;-60
2021/08/11 01:02:16;;;;;;;8.10;6.67;;;18.90;99.90;;;;;;5068082;28;20462;-59
2021/08/11 01:04:44;;;;;;;9.70;6.33;;;18.90;99.90;;;;;;5070638;28;20447;-59
2021/08/11 01:07:16;;;;;;;9.87;7.00;;;18.90;99.90;;;;;;5078908;28;20509;-58
2021/08/11 01:09:44;;;;;;;10.60;6.20;;;18.80;99.90;;;;;;5066084;28;20529;-60
2021/08/11 01:12:15;;;;;;;8.47;5.60;;;18.80;99.90;;;;;;5071176;28;21029;-60
2021/08/11 01:14:43;;;;;;;8.20;6.00;;;18.70;99.90;;;;;;5072096;28;20458;-60
2021/08/11 01:17:10;;;;;;;7.63;6.83;;;18.50;99.90;;;;;;5074048;28;20543;-60
2021/08/11 01:19:38;;;;;;;7.10;6.30;;;18.50;99.90;;;;;;5073219;28;20451;-60
2021/08/11 01:22:10;;;;;;;9.07;6.57;;;18.50;99.90;;;;;;5071299;28;20959;-60
2021/08/11 01:24:45;;;;;;;6.70;6.07;;;18.50;99.90;;;;;;5074050;28;20451;-59
2021/08/11 01:27:59;;;;;;;9.87;7.03;;;18.60;99.90;;;;;;5074122;28;20845;-60
2021/08/11 01:30:35;;;;;;;7.73;6.03;;;18.50;99.90;;;;;;5011457;28;20460;-60
2021/08/11 01:33:36;;;;;;;8.77;6.60;;;18.60;99.90;;;;;;5069359;28;20450;-60
2021/08/11 01:36:08;;;;;;;9.10;7.00;;;18.50;99.90;;;;;;5066262;28;20449;-59
2021/08/11 01:38:37;;;;;;;11.13;7.60;;;18.40;99.90;;;;;;5071661;28;20480;-59
2021/08/11 01:41:07;;;;;;;7.50;6.17;;;18.40;99.90;;;;;;5073635;28;20463;-60
2021/08/11 01:43:43;;;;;;;5.87;5.20;;;18.40;99.90;;;;;;5073511;28;20818;-60
2021/08/11 01:46:12;;;;;;;7.10;6.33;;;18.40;99.90;;;;;;5073975;28;20443;-60
2021/08/11 01:48:41;;;;;;;8.60;6.73;;;18.50;99.90;;;;;;5073293;28;20443;-60
2021/08/11 01:51:09;;;;;;;8.83;6.73;;;18.50;99.90;;;;;;5073272;28;20505;-60
2021/08/11 01:53:36;;;;;;;7.70;6.03;;;18.50;99.90;;;;;;5073342;28;20451;-60
2021/08/11 01:56:04;;;;;;;7.00;6.30;;;18.40;99.90;;;;;;5073199;28;20450;-59
2021/08/11 01:58:32;;;;;;;9.20;6.23;;;18.50;99.90;;;;;;5073120;28;21073;-59
2021/08/11 02:01:02;;;;;;;6.80;6.07;;;18.50;99.90;;;;;;5072022;28;20468;-60
2021/08/11 02:03:30;;;;;;;7.80;6.30;;;18.50;99.90;;;;;;5069674;28;20455;-59
2021/08/11 02:05:59;;;;;;;8.80;6.90;;;18.50;99.90;;;;;;5073170;28;21002;-59
2021/08/11 02:08:26;;;;;;;7.27;6.10;;;18.50;99.90;;;;;;5073328;28;20443;-60
2021/08/11 02:10:56;;;;;;;7.23;5.93;;;18.50;99.90;;;;;;5072303;28;20483;-59
2021/08/11 02:13:23;;;;;;;9.07;6.47;;;18.50;99.90;;;;;;5072705;28;20451;-60
2021/08/11 02:15:51;;;;;;;7.20;6.30;;;18.40;99.90;;;;;;5072867;28;20447;-60
2021/08/11 02:18:18;;;;;;;8.80;6.63;;;18.40;99.90;;;;;;5072794;28;20509;-59
2021/08/11 02:20:46;;;;;;;10.00;6.90;;;18.40;99.90;;;;;;5071460;28;20536;-60
2021/08/11 02:23:14;;;;;;;8.23;6.60;;;18.30;99.90;;;;;;5072598;28;20494;-60
2021/08/11 02:25:48;;;;;;;6.87;6.03;;;18.30;99.90;;;;;;5070409;28;20447;-60
2021/08/11 02:28:23;;;;;;;7.87;6.70;;;18.30;99.90;;;;;;5072779;28;20454;-60
2021/08/11 02:30:59;;;;;;;8.50;6.50;;;18.20;99.90;;;;;;5072210;28;20536;-59
2021/08/11 02:33:31;;;;;;;6.80;6.07;;;18.30;99.90;;;;;;5072148;28;20936;-59
2021/08/11 02:36:02;;;;;;;7.83;6.40;;;18.30;99.90;;;;;;5071539;28;20458;-59
2021/08/11 02:38:35;;;;;;;9.70;6.70;;;18.20;99.90;;;;;;5063833;28;20490;-59
2021/08/11 02:41:08;;;;;;;7.70;6.83;;;18.20;99.90;;;;;;5072515;28;20477;-60
2021/08/11 02:43:38;;;;;;;6.73;5.80;;;18.10;99.90;;;;;;5071609;28;20447;-59
2021/08/11 02:46:09;;;;;;;8.50;6.00;;;18.20;99.90;;;;;;5072838;28;20504;-60
2021/08/11 02:48:37;;;;;;;11.33;7.90;;;18.20;99.90;;;;;;5072277;28;20492;-59
2021/08/11 02:51:06;;;;;;;13.23;6.27;;;18.10;99.90;;;;;;5067750;28;20475;-59
2021/08/11 02:53:37;;;;;;;8.87;6.90;;;18.00;99.90;;;;;;5061369;28;20508;-60
2021/08/11 02:56:04;;;;;;;11.90;6.83;;;18.00;99.90;;;;;;5072019;28;20451;-60
2021/08/11 02:58:33;;;;;;;9.60;7.13;;;17.90;99.90;;;;;;5072283;28;21068;-60
2021/08/11 03:01:00;;;;;;;8.60;7.20;;;17.80;99.90;;;;;;5072242;28;20528;-60
2021/08/11 03:03:27;;;;;;;11.37;6.80;;;17.80;99.90;;;;;;5071760;28;20450;-59
2021/08/11 03:05:55;;;;;;;7.53;6.20;;;17.80;99.90;;;;;;5071753;28;20500;-59
2021/08/11 03:08:23;;;;;;;9.23;6.53;;;17.80;99.90;;;;;;5070624;28;20443;-60
2021/08/11 03:10:52;;;;;;;6.40;5.80;;;17.80;99.90;;;;;;5072246;28;20463;-60
2021/08/11 03:13:20;;;;;;;7.57;6.30;;;17.80;99.90;;;;;;5071701;28;20454;-59
2021/08/11 03:15:49;;;;;;;10.93;6.37;;;17.80;99.90;;;;;;5072211;28;20899;-60
2021/08/11 03:18:17;;;;;;;7.87;6.20;;;17.80;99.90;;;;;;5071691;28;20509;-60
2021/08/11 03:20:45;;;;;;;7.93;5.73;;;17.80;99.90;;;;;;5071266;28;20467;-60
2021/08/11 03:23:13;;;;;;;7.83;6.27;;;17.80;99.90;;;;;;5069184;28;21120;-59
2021/08/11 03:25:40;;;;;;;7.07;6.37;;;17.80;99.90;;;;;;5056920;28;20829;-60
2021/08/11 03:28:09;;;;;;;10.03;6.63;;;17.80;99.90;;;;;;5071468;28;20531;-59
2021/08/11 03:30:37;;;;;;;9.17;6.57;;;17.70;99.90;;;;;;5071815;28;20502;-60
2021/08/11 03:33:04;;;;;;;7.63;6.57;;;17.70;99.90;;;;;;5071632;28;20488;-59
2021/08/11 03:35:31;;;;;;;6.80;6.10;;;17.70;99.90;;;;;;5071241;28;20443;-60
2021/08/11 03:37:59;;;;;;;8.13;6.73;;;17.70;99.90;;;;;;5070403;28;20478;-60
2021/08/11 03:40:26;;;;;;;7.77;6.70;;;17.70;99.90;;;;;;5071334;28;20471;-60
2021/08/11 03:42:53;;;;;;;8.30;7.30;;;17.60;99.90;;;;;;5071613;28;20532;-59
2021/08/11 03:45:22;;;;;;;12.60;6.63;;;17.50;99.90;;;;;;5071391;28;20451;-60
2021/08/11 03:47:49;;;;;;;8.10;6.07;;;17.50;99.90;;;;;;5071190;28;20439;-59
2021/08/11 03:50:18;;;;;;;11.70;6.90;;;17.40;99.90;;;;;;5071063;28;20531;-58
2021/08/11 03:52:45;;;;;;;10.30;6.70;;;17.40;99.90;;;;;;5070918;28;20450;-58
2021/08/11 03:55:14;;;;;;;13.97;7.63;;;17.50;99.90;;;;;;5070983;28;20500;-57
2021/08/11 03:57:41;;;;;;;7.90;6.20;;;17.40;99.90;;;;;;5070977;28;20450;-58
2021/08/11 04:00:09;;;;;;;6.53;5.83;;;17.40;99.90;;;;;;5071092;28;21037;-58
2021/08/11 04:02:38;;;;;;;8.87;6.93;;;17.50;99.90;;;;;;5070752;28;20516;-58
2021/08/11 04:05:05;;;;;;;8.23;6.43;;;17.50;99.90;;;;;;5071229;28;20450;-57
2021/08/11 04:07:32;;;;;;;7.87;6.40;;;17.50;99.90;;;;;;5071370;28;20508;-58
2021/08/11 04:09:59;;;;;;;7.13;6.43;;;17.50;99.90;;;;;;5070449;28;20471;-58
2021/08/11 04:12:26;;;;;;;7.10;6.03;;;17.50;99.90;;;;;;5071255;28;20454;-57
2021/08/11 04:14:53;;;;;;;7.50;6.17;;;17.50;99.90;;;;;;5071354;28;20515;-57
2021/08/11 04:17:20;;;;;;;10.03;6.60;;;17.50;99.90;;;;;;5070864;28;21033;-58
2021/08/11 04:19:49;;;;;;;6.63;5.77;;;17.50;99.90;;;;;;5071089;28;20907;-57
2021/08/11 04:22:19;;;;;;;6.50;5.83;;;17.60;99.90;;;;;;5070989;28;20496;-58
2021/08/11 04:24:46;;;;;;;7.30;6.27;;;17.60;99.90;;;;;;5070331;28;20508;-58
2021/08/11 04:27:14;;;;;;;7.67;6.50;;;17.70;99.90;;;;;;5071226;28;20451;-58
2021/08/11 04:29:41;;;;;;;9.00;6.37;;;17.60;99.90;;;;;;5071426;28;20521;-58
2021/08/11 04:32:08;;;;;;;7.03;6.20;;;17.60;99.90;;;;;;5070921;28;20451;-58
2021/08/11 04:34:35;;;;;;;6.27;5.70;;;17.60;99.90;;;;;;5066506;28;20493;-58
2021/08/11 04:37:05;;;;;;;7.37;6.20;;;17.70;99.90;;;;;;5051370;28;20573;-57
2021/08/11 04:39:33;;;;;;;8.30;6.60;;;17.70;99.90;;;;;;5051271;28;20491;-58
2021/08/11 04:42:00;;;;;;;7.70;6.53;;;17.80;99.90;;;;;;5063805;28;20507;-58
2021/08/11 04:44:27;;;;;;;13.70;8.13;;;17.80;99.90;;;;;;5073631;28;20447;-57
2021/08/11 04:46:55;;;;;;;8.97;6.70;;;17.80;99.90;;;;;;5075246;28;20496;-58
2021/08/11 04:49:22;;;;;;;9.70;6.80;;;17.90;99.90;;;;;;5074982;28;20565;-58
2021/08/11 04:51:49;;;;;;;10.50;6.57;;;18.10;99.90;;;;;;5074550;28;20489;-57
2021/08/11 04:54:18;;;;;;;7.03;6.13;;;18.30;99.90;;;;;;5074856;28;20447;-58
2021/08/11 04:56:45;;;;;;;8.90;6.60;;;18.40;99.90;;;;;;5074704;28;20447;-58
2021/08/11 04:59:12;;;;;;;9.00;6.80;;;18.50;99.90;;;;;;5074306;28;20621;-58
2021/08/11 05:01:39;;;;;;;9.70;6.13;;;18.50;99.90;;;;;;5074718;28;20467;-58
2021/08/11 05:04:08;;;;;;;9.77;7.17;;;18.50;99.90;;;;;;5074463;28;20981;-58
2021/08/11 05:06:34;;;;;;;9.07;6.93;;;18.20;99.90;;;;;;5074516;28;20963;-58
2021/08/11 05:09:02;;;;;;;12.77;6.40;;;18.20;99.90;;;;;;5074643;28;20495;-58
2021/08/11 05:11:30;;;;;;;16.03;7.00;;;18.10;99.90;;;;;;5082012;28;20983;-57
2021/08/11 05:13:57;;;;;;;9.53;6.70;;;18.20;99.90;;;;;;5094756;28;20445;-58
2021/08/11 05:16:24;;;;;;;7.40;6.30;;;18.20;99.90;;;;;;5075196;28;20504;-58
2021/08/11 05:18:51;;;;;;;11.63;6.37;;;18.20;99.90;;;;;;5074536;28;20531;-57
2021/08/11 05:21:18;;;;;;;9.50;7.60;;;18.30;99.90;;;;;;5073299;28;20466;-58
2021/08/11 05:23:45;;;;;;;7.00;6.30;;;18.40;99.90;;;;;;5073920;28;20442;-58
2021/08/11 05:26:11;;;;;;;9.17;7.03;;;18.50;99.90;;;;;;5074310;28;20451;-58
2021/08/11 05:28:40;;;;;;;8.83;6.20;;;18.80;99.90;;;;;;5074270;28;20488;-58
2021/08/11 05:31:07;;;;;;;9.07;5.87;;;19.60;99.90;;;;;;5072520;28;20520;-58
2021/08/11 05:33:34;;;;;;;6.40;5.50;;;20.60;99.90;;;;;;5073824;28;20869;-58
2021/08/11 05:36:01;;;;;;;10.07;6.17;;;21.50;99.90;;;;;;5073942;28;20512;-58
2021/08/11 05:38:28;;;;;;;11.60;6.70;;;22.10;99.90;;;;;;5074086;28;20479;-58
2021/08/11 05:40:55;;;;;;;6.60;5.43;;;22.90;99.90;;;;;;5059031;28;20852;-58
2021/08/11 05:43:22;;;;;;;6.10;5.50;;;23.70;99.90;;;;;;5053680;28;20490;-58
2021/08/11 05:45:51;;;;;;;6.73;5.20;;;24.20;99.90;;;;;;5053818;28;20954;-58
2021/08/11 05:48:18;;;;;;;9.00;6.27;;;24.70;99.90;;;;;;5060334;28;20504;-58
2021/08/11 05:50:45;;;;;;;7.83;5.77;;;25.00;99.90;;;;;;5061846;28;20471;-59
2021/08/11 05:53:12;;;;;;;6.77;5.67;;;25.40;99.90;;;;;;5073414;28;20511;-59
2021/08/11 05:55:41;;;;;;;8.00;7.20;;;25.40;99.90;;;;;;5073402;28;21014;-59
2021/08/11 05:58:09;;;;;;;5.50;5.00;;;25.90;99.90;;;;;;5073613;28;20451;-58
2021/08/11 06:00:36;;;;;;;8.03;5.13;;;26.10;99.90;;;;;;5073366;28;20513;-59
2021/08/11 06:03:04;;;;;;;5.10;4.60;;;25.40;99.90;;;;;;5073376;28;20450;-59
2021/08/11 06:05:31;;;;;;;6.07;5.50;;;25.20;99.90;;;;;;5061564;28;20502;-58
2021/08/11 06:07:58;;;;;;;6.30;5.03;;;25.60;99.90;;;;;;5053296;28;20447;-58
2021/08/11 06:10:25;;;;;;;6.77;4.93;;;25.80;99.90;;;;;;5053404;28;20471;-59
2021/08/11 06:12:53;;;;;;;6.70;5.30;;;25.80;99.90;;;;;;5053520;28;20447;-59
2021/08/11 06:15:21;;;;;;;6.13;5.00;;;25.10;99.90;;;;;;5053225;28;20459;-59
2021/08/11 06:17:49;;;;;;;7.23;5.20;;;24.40;99.90;;;;;;5088810;28;20492;-59
2021/08/11 06:20:19;;;;;;;12.13;4.97;;;23.50;99.90;;;;;;5093174;28;20539;-59
2021/08/11 06:22:47;;;;;;;5.90;5.40;;;22.60;99.90;;;;;;5075265;28;20504;-58
2021/08/11 06:25:15;;;;;;;6.50;5.53;;;22.20;99.90;;;;;;5073120;28;20455;-58
2021/08/11 06:27:42;;;;;;;6.20;5.43;;;22.30;99.90;;;;;;5072991;28;20516;-58
2021/08/11 06:30:11;;;;;;;5.67;5.07;;;21.90;99.90;;;;;;5072627;28;20827;-58
2021/08/11 06:32:38;;;;;;;9.37;5.83;;;21.70;99.90;;;;;;5071875;28;20520;-58
2021/08/11 06:35:07;;;;;;;7.13;5.40;;;21.60;99.90;;;;;;5072864;28;20526;-58
2021/08/11 06:37:44;;;;;;;7.80;5.53;;;21.40;99.90;;;;;;5072346;28;20515;-58
2021/08/11 06:40:12;;;;;;;7.53;5.83;;;21.40;99.90;;;;;;5057487;28;20560;-58
2021/08/11 06:42:39;;;;;;;7.53;5.63;;;21.40;99.90;;;;;;5052305;28;21028;-58
2021/08/11 06:45:07;;;;;;;11.40;5.50;;;22.10;99.90;;;;;;5052732;28;20443;-59
2021/08/11 06:47:35;;;;;;;7.30;5.70;;;23.00;99.90;;;;;;5052844;28;20878;-59
2021/08/11 06:50:02;;;;;;;7.33;5.73;;;23.90;99.90;;;;;;5069353;28;20474;-59
2021/08/11 06:52:33;;;;;;;6.53;4.63;;;24.70;99.90;;;;;;5072490;28;20512;-59
2021/08/11 06:55:02;;;;;;;7.03;6.20;;;25.40;99.90;;;;;;5070857;28;20508;-58
2021/08/11 06:57:29;;;;;;;5.30;4.80;;;26.10;99.90;;;;;;5072510;28;20863;-59
2021/08/11 06:59:56;;;;;;;6.53;4.93;;;26.40;99.90;;;;;;5072120;28;20494;-59
2021/08/11 07:02:23;;;;;;;7.17;5.57;;;27.30;99.90;;;;;;5071875;28;20462;-59
2021/08/11 07:04:50;;;;;;;6.40;5.10;;;28.00;99.90;;;;;;5072377;28;20454;-59
2021/08/11 07:07:19;;;;;;;6.10;5.50;;;28.30;99.90;;;;;;5063658;28;20493;-59
2021/08/11 07:09:47;;;;;;;6.03;5.27;;;28.70;99.90;;;;;;5052076;28;20506;-59
2021/08/11 07:12:16;;;;;;;5.90;5.40;;;28.20;99.90;;;;;;5053034;28;20500;-59
2021/08/11 07:14:43;;;;;;;5.33;4.77;;;27.20;99.90;;;;;;5052081;28;20871;-59
2021/08/11 07:17:10;;;;;;;6.00;5.20;;;26.20;99.90;;;;;;5052038;28;20521;-59
2021/08/11 07:19:38;;;;;;;7.73;5.90;;;25.50;99.90;;;;;;5051963;28;20899;-59
2021/08/11 07:22:04;;;;;;;8.07;4.80;;;25.40;99.90;;;;;;5051844;28;20447;-59
2021/08/11 07:24:31;;;;;;;7.00;5.20;;;26.20;99.90;;;;;;5051966;28;20508;-59
2021/08/11 07:26:58;;;;;;;7.20;5.73;;;27.20;99.90;;;;;;5052113;28;20501;-59
2021/08/11 07:29:27;;;;;;;7.00;5.13;;;28.10;99.90;;;;;;5064185;28;20447;-59
2021/08/11 07:31:54;;;;;;;8.83;5.30;;;28.80;99.90;;;;;;5071593;28;20504;-59
2021/08/11 07:34:21;;;;;;;7.50;5.70;;;29.40;99.90;;;;;;5071958;28;20442;-59
2021/08/11 07:36:47;;;;;;;6.03;5.37;;;29.30;99.90;;;;;;5071925;28;20515;-59
2021/08/11 07:39:14;;;;;;;6.00;5.50;;;29.40;99.90;;;;;;5071574;28;20478;-59
2021/08/11 07:41:42;;;;;;;5.10;4.63;;;29.30;99.90;;;;;;5071707;28;21050;-59
2021/08/11 07:44:08;;;;;;;5.93;5.40;;;29.50;99.90;;;;;;5060345;28;20448;-59
2021/08/11 07:46:37;;;;;;;7.30;5.80;;;29.80;99.90;;;;;;5066397;28;20446;-59
2021/08/11 07:49:04;;;;;;;5.80;5.17;;;29.60;99.90;;;;;;5071642;28;20948;-59
2021/08/11 07:51:31;;;;;;;8.57;5.50;;;29.90;99.90;;;;;;5071283;28;20482;-59
2021/08/11 07:53:58;;;;;;;7.07;5.77;;;29.50;99.90;;;;;;5066059;28;20491;-60
2021/08/11 07:56:25;;;;;;;5.00;4.50;;;29.80;99.90;;;;;;5066379;28;20547;-59
2021/08/11 07:58:52;;;;;;;6.10;4.80;;;29.50;99.90;;;;;;5067314;28;20465;-59
2021/08/11 08:01:19;;;;;;;5.97;5.07;;;30.20;99.90;;;;;;5070420;28;20224;-59
2021/08/11 08:03:48;;;;;;;6.47;5.17;;;29.80;99.90;;;;;;5070701;28;20904;-60
2021/08/11 08:06:15;;;;;;;6.47;5.57;;;30.50;99.90;;;;;;5071078;28;20450;-59
2021/08/11 08:08:42;;;;;;;5.43;4.93;;;30.50;99.90;;;;;;5070735;28;20457;-60
2021/08/11 08:11:10;;;;;;;8.20;5.50;;;30.80;99.90;;;;;;5070616;28;20531;-59
2021/08/11 08:13:37;;;;;;;5.80;5.20;;;31.10;99.90;;;;;;5070917;28;20446;-60
2021/08/11 08:16:04;;;;;;;7.47;5.40;;;31.10;99.90;;;;;;5070454;28;20447;-59
2021/08/11 08:18:31;;;;;;;6.27;5.27;;;31.20;99.90;;;;;;5074034;28;20457;-60
2021/08/11 08:21:01;;;;;;;7.43;4.77;;;31.40;99.90;;;;;;5074186;28;20569;-60
2021/08/11 08:23:28;;;;;;;5.70;4.70;;;31.10;99.90;;;;;;5074960;28;20508;-60
2021/08/11 08:25:55;;;;;;;5.30;4.80;;;31.20;99.90;;;;;;5062508;28;20454;-60
2021/08/11 08:28:23;;;;;;;5.70;5.20;;;30.80;99.90;;;;;;5074791;28;20520;-60
2021/08/11 08:30:50;;;;;;;6.10;5.07;;;30.70;99.90;;;;;;5074559;28;20462;-60
2021/08/11 08:33:17;;;;;;;5.97;5.33;;;31.00;99.90;;;;;;5074442;28;20450;-59
2021/08/11 08:35:44;;;;;;;6.57;5.60;;;31.30;99.90;;;;;;5074483;28;20512;-60
2021/08/11 08:38:13;;;;;;;6.80;5.27;;;30.90;99.90;;;;;;5072927;28;20451;-60
2021/08/11 08:40:44;;;;;;;6.07;5.47;;;30.90;99.90;;;;;;5072057;28;20543;-60
2021/08/11 08:43:11;;;;;;;6.37;5.47;;;31.00;99.90;;;;;;5074642;28;20538;-60
2021/08/11 08:45:38;;;;;;;6.57;5.70;;;31.20;99.90;;;;;;5073245;28;20451;-60
2021/08/11 08:48:05;;;;;;;6.53;5.77;;;31.50;99.90;;;;;;5074498;28;20940;-60
2021/08/11 08:50:33;;;;;;;8.23;4.87;;;31.70;99.90;;;;;;5065933;28;20475;-59
2021/08/11 08:53:01;;;;;;;7.00;5.60;;;31.70;99.90;;;;;;5073366;28;20800;-60
2021/08/11 08:55:30;;;;;;;6.27;5.70;;;31.80;99.90;;;;;;5073152;28;20557;-60
2021/08/11 08:57:57;;;;;;;5.70;5.20;;;31.50;99.90;;;;;;5073290;28;20450;-60
2021/08/11 09:00:25;;;;;;;7.53;5.60;;;31.70;99.90;;;;;;5071968;28;20567;-59
2021/08/11 09:02:52;;;;;;;6.30;5.70;;;31.80;99.90;;;;;;5073714;28;20478;-60
2021/08/11 09:05:19;;;;;;;9.73;6.00;;;31.60;99.90;;;;;;5074760;28;20500;-60
2021/08/11 09:07:49;;;;;;;7.73;6.57;;;31.80;99.90;;;;;;5074405;28;20867;-60
2021/08/11 09:10:21;;;;;;;6.13;5.53;;;31.80;99.90;;;;;;5074459;28;20462;-60
2021/08/11 09:12:51;;;;;;;7.70;5.73;;;31.50;99.90;;;;;;5074415;28;20458;-60
2021/08/11 09:15:33;;;;;;;6.07;5.57;;;31.30;99.90;;;;;;5074704;28;20445;-60
2021/08/11 09:18:10;;;;;;;7.97;5.87;;;31.20;99.90;;;;;;5074136;28;20929;-60
2021/08/11 09:20:38;;;;;;;7.53;5.60;;;31.60;99.90;;;;;;5054358;28;20876;-60
2021/08/11 09:23:05;;;;;;;8.00;5.90;;;32.30;99.90;;;;;;5054050;28;20443;-61
2021/08/11 09:25:32;;;;;;;6.73;5.33;;;32.60;99.90;;;;;;5062373;28;20529;-60
2021/08/11 09:28:01;;;;;;;6.67;5.40;;;32.10;99.90;;;;;;5074168;28;20850;-60
2021/08/11 09:30:32;;;;;;;7.40;6.70;;;32.80;99.90;;;;;;5073604;28;20855;-60
2021/08/11 09:33:01;;;;;;;6.20;5.60;;;32.50;99.90;;;;;;5074184;28;20541;-59
2021/08/11 09:35:29;;;;;;;7.07;5.73;;;32.40;99.90;;;;;;5073718;28;20496;-60
2021/08/11 09:37:58;;;;;;;8.10;6.20;;;32.40;99.90;;;;;;5074001;28;20446;-60
2021/08/11 09:40:27;;;;;;;6.43;5.70;;;32.70;99.90;;;;;;5074032;28;20471;-60
2021/08/11 09:42:56;;;;;;;7.47;6.77;;;32.70;99.90;;;;;;5071718;28;20451;-60
2021/08/11 09:45:25;;;;;;;8.25;5.65;;;32.80;99.90;;;;;;5071548;28;20445;-60
2021/08/11 09:48:02;;;;;;;9.77;6.03;;;33.00;99.90;;;;;;5072886;28;20213;-60
2021/08/11 09:50:46;;;;;;;9.50;5.60;;;32.80;99.90;;;;;;5073754;28;20490;-59
2021/08/11 09:53:14;;;;;;;6.43;5.83;;;32.80;99.90;;;;;;5073553;28;20450;-61
2021/08/11 09:55:56;;;;;;;6.40;5.80;;;32.40;99.90;;;;;;5064292;28;20501;-62
2021/08/11 09:58:23;;;;;;;7.83;5.90;;;32.80;99.90;;;;;;5072889;28;20450;-61
2021/08/11 10:00:52;;;;;;;6.50;5.80;;;32.90;99.90;;;;;;5073693;28;20539;-63
2021/08/11 10:03:19;;;;;;;6.57;5.97;;;33.00;99.90;;;;;;5073134;28;20447;-62
2021/08/11 10:05:46;;;;;;;7.30;5.97;;;33.00;99.90;;;;;;5073302;28;20948;-63
2021/08/11 10:08:13;;;;;;;7.70;5.60;;;33.30;99.90;;;;;;5073360;28;20479;-62
2021/08/11 10:10:50;;;;;;;6.30;5.70;;;32.90;99.90;;;;;;5072810;28;20491;-62
2021/08/11 10:13:21;;;;;;;6.93;6.27;;;32.60;99.90;;;;;;5073113;28;20451;-62
2021/08/11 10:15:48;;;;;;;6.20;5.60;;;32.80;99.90;;;;;;5072436;28;20451;-62
2021/08/11 10:18:20;;;;;;;6.83;5.63;;;33.00;99.90;;;;;;5072954;28;20512;-61
2021/08/11 10:20:48;;;;;;;7.20;6.30;;;33.00;99.90;;;;;;5072988;28;21033;-62
2021/08/11 10:23:17;;;;;;;6.43;5.83;;;33.20;99.90;;;;;;5072732;28;20446;-62
2021/08/11 10:25:45;;;;;;;9.73;5.97;;;33.30;99.90;;;;;;5072963;28;20485;-61
2021/08/11 10:28:12;;;;;;;6.77;6.17;;;33.20;99.90;;;;;;5072804;28;20442;-62
2021/08/11 10:30:39;;;;;;;6.97;6.20;;;32.90;99.90;;;;;;5068900;28;20849;-62
2021/08/11 10:33:07;;;;;;;9.27;6.57;;;32.20;99.90;;;;;;5066199;28;20458;-62
2021/08/11 10:35:35;;;;;;;7.77;6.93;;;32.40;99.90;;;;;;5072719;28;20456;-62
2021/08/11 10:38:05;;;;;;;7.80;6.67;;;32.30;99.90;;;;;;5072554;28;20447;-62
2021/08/11 10:40:32;;;;;;;7.40;6.70;;;32.60;99.90;;;;;;5071226;28;20471;-62
2021/08/11 10:43:00;;;;;;;8.83;6.53;;;31.90;99.90;;;;;;5072097;28;20454;-62
2021/08/11 10:45:28;;;;;;;9.60;6.73;;;30.90;99.90;;;;;;5072208;28;20450;-62
2021/08/11 10:47:55;;;;;;;9.13;7.23;;;30.90;99.90;;;;;;5072714;28;20447;-62
2021/08/11 10:50:22;;;;;;;7.67;6.83;;;30.70;99.90;;;;;;5071774;28;20482;-62
2021/08/11 10:53:09;;;;;;;7.33;6.60;;;31.10;99.90;;;;;;5072250;28;20451;-61
2021/08/11 10:55:46;;;;;;;7.70;6.90;;;30.00;99.90;;;;;;5063190;28;20452;-61
2021/08/11 10:58:43;;;;;;;10.30;7.10;;;29.50;99.90;;;;;;5052232;28;20501;-61
2021/08/11 11:01:31;;;;;;;8.17;7.30;;;29.60;99.90;;;;;;5052382;28;20463;-61
2021/08/11 11:03:59;;;;;;;6.43;5.93;;;29.80;99.90;;;;;;5051964;28;20458;-62
2021/08/11 11:06:53;;;;;;;7.63;6.83;;;29.90;99.90;;;;;;5070760;28;20987;-61
2021/08/11 11:09:23;;;;;;;10.27;6.67;;;29.60;99.90;;;;;;5072074;28;20453;-62
2021/08/11 11:11:50;;;;;;;7.37;6.50;;;28.80;99.90;;;;;;5071196;28;20853;-61
2021/08/11 11:14:52;;;;;;;6.87;6.17;;;28.20;99.90;;;;;;5071990;28;20528;-61
2021/08/11 11:17:19;;;;;;;8.33;6.57;;;28.00;99.90;;;;;;5072402;28;20450;-62
2021/08/11 11:20:32;;;;;;;8.50;5.77;;;28.60;99.90;;;;;;5071389;28;20455;-61
2021/08/11 11:23:04;;;;;;;6.87;6.20;;;28.70;99.90;;;;;;5066490;28;20450;-61
2021/08/11 11:25:58;;;;;;;6.40;5.80;;;28.40;99.90;;;;;;5071818;28;20443;-61
2021/08/11 11:28:54;;;;;;;6.87;6.13;;;28.10;99.90;;;;;;5071917;28;20439;-61
2021/08/11 11:31:42;;;;;;;6.10;5.50;;;27.90;99.90;;;;;;5071664;28;20509;-61
2021/08/11 11:34:30;;;;;;;6.33;5.60;;;27.50;99.90;;;;;;5071566;28;20458;-60
2021/08/11 11:37:25;;;;;;;6.70;6.07;;;27.60;99.90;;;;;;5071612;28;20447;-61
2021/08/11 11:40:05;;;;;;;11.03;5.93;;;27.30;99.90;;;;;;5071366;28;20498;-61
2021/08/11 11:42:33;;;;;;;6.53;5.77;;;27.10;99.90;;;;;;5068110;28;20459;-60
2021/08/11 11:45:01;;;;;;;6.40;5.30;;;27.30;99.90;;;;;;5071615;28;20447;-60
2021/08/11 11:48:11;;;;;;;5.90;5.30;;;27.70;99.90;;;;;;5071557;28;20827;-61
2021/08/11 11:50:43;;;;;;;5.33;4.83;;;27.90;99.90;;;;;;5071027;28;21008;-61
2021/08/11 11:53:35;;;;;;;8.17;5.63;;;27.50;99.90;;;;;;5071212;28;20454;-61
2021/08/11 11:56:13;;;;;;;6.00;5.40;;;27.60;99.90;;;;;;5052906;28;20877;-61
2021/08/11 11:58:47;;;;;;;6.40;5.80;;;27.70;99.90;;;;;;5058741;28;20454;-62
2021/08/11 12:01:15;;;;;;;8.77;5.53;;;27.70;99.90;;;;;;5091585;28;20527;-61
2021/08/11 12:03:50;;;;;;;5.60;5.00;;;28.00;99.90;;;;;;5091429;28;20523;-61
2021/08/11 12:06:33;;;;;;;6.60;5.90;;;28.20;99.90;;;;;;5091648;28;20446;-60
2021/08/11 12:09:00;;;;;;;5.87;5.13;;;28.20;99.90;;;;;;5083254;28;20462;-61
2021/08/11 12:11:28;;;;;;;5.67;5.17;;;27.70;99.90;;;;;;5067263;28;20999;-60
2021/08/11 12:13:56;;;;;;;5.73;5.23;;;28.00;99.90;;;;;;5065695;28;20443;-60
2021/08/11 12:16:24;;;;;;;5.90;5.37;;;27.60;99.90;;;;;;5071482;28;20443;-61
2021/08/11 12:18:52;;;;;;;7.07;5.57;;;27.60;99.90;;;;;;5054626;28;20455;-61
2021/08/11 12:21:22;;;;;;;5.47;4.97;;;27.80;99.90;;;;;;5065854;28;20475;-61
2021/08/11 12:23:51;;;;;;;6.20;5.10;;;27.90;99.90;;;;;;5071199;28;20874;-61
2021/08/11 12:26:18;;;;;;;6.70;5.20;;;27.60;99.90;;;;;;5071480;28;20482;-61
2021/08/11 12:28:48;;;;;;;7.93;5.20;;;27.70;99.90;;;;;;5070894;28;20466;-61
2021/08/11 12:31:18;;;;;;;6.50;5.10;;;28.00;99.90;;;;;;5071193;28;20486;-61
2021/08/11 12:33:46;;;;;;;8.63;4.73;;;28.20;99.90;;;;;;5069428;28;20443;-61
2021/08/11 12:36:18;;;;;;;5.27;4.77;;;28.10;99.90;;;;;;5064963;28;20517;-61
2021/08/11 12:38:59;;;;;;;6.10;5.20;;;27.90;99.90;;;;;;5071461;28;20447;-61
2021/08/11 12:41:27;;;;;;;7.27;5.00;;;28.00;99.90;;;;;;5071131;28;20554;-61
2021/08/11 12:43:56;;;;;;;5.83;5.30;;;27.80;99.90;;;;;;5070945;28;20450;-61
2021/08/11 12:46:48;;;;;;;7.20;5.00;;;27.80;99.90;;;;;;5071121;28;20542;-62
2021/08/11 12:49:16;;;;;;;5.23;4.73;;;27.60;99.90;;;;;;5070929;28;20892;-61
2021/08/11 12:51:44;;;;;;;5.77;5.27;;;27.70;99.90;;;;;;5054950;28;20514;-61
2021/08/11 12:54:12;;;;;;;5.80;5.30;;;28.00;99.90;;;;;;5050828;28;20447;-61
2021/08/11 12:56:54;;;;;;;5.57;5.07;;;28.20;99.90;;;;;;5050954;28;20452;-61
2021/08/11 12:59:21;;;;;;;6.77;5.17;;;28.30;99.90;;;;;;5049187;28;20953;-61